Flight Track Log - Related Links

Times and Time Zones

All times are in EDT time to prevent confusion due to time zone crossing. See the DAL1022 flight status page for this flight to view local times or setup timezone preferences in your user account.

Time Position Orientation Groundspeed Altitude Reporting Facility
EDT Latitude Longitude Course Direction KTS MPH feet Rate Location/Type
Sat 11:22:53 AM 33.6500 -84.4833 252° West 179 206 2,900  Level Atlanta TRACON
Sat 11:23:53 AM 33.6667 -84.5500 287° West 253 291 4,600 2,300 Climbing Atlanta TRACON
Sat 11:24:53 AM 33.6667 -84.6333 270° West 269 310 7,500 2,188 Climbing Atlanta TRACON
Sat 11:25:00 AM 33.8000 -84.5283 270° West  Level FlightAware Approximate
Sat 11:26:00 AM 33.7854 -84.6699 252° West  Level FlightAware Approximate
Sat 11:26:54 AM 33.6644 -84.8300 269° West 286 329 11,200  Level Atlanta Center
Sat 11:27:00 AM 33.7476 -84.8069 252° West  Level FlightAware Approximate
Sat 11:27:54 AM 33.6617 -84.9422 268° West 325 374 13,500  Level Atlanta Center
Sat 11:28:00 AM 33.7096 -84.9437 252° West  Level FlightAware Approximate
Sat 11:28:54 AM 33.6567 -85.0494 267° West 332 382 16,700  Level Atlanta Center
Sat 11:29:54 AM 33.6536 -85.1619 268° West 336 387 17,300 850 Climbing Atlanta Center
Sat 11:30:54 AM 33.6500 -85.3014 268° West 370 426 18,400 1,767 Climbing Atlanta Center
Sat 11:32:54 AM 33.6556 -85.5461 272° West 375 432 22,600 1,800 Climbing Atlanta Center
Sat 11:33:54 AM 33.6561 -85.6708 270° West 375 432 23,800 1,350 Climbing Atlanta Center
Sat 11:34:54 AM 33.6606 -85.7983 272° West 380 437 25,300 1,300 Climbing Atlanta Center
Sat 11:35:54 AM 33.6589 -85.9231 269° West 380 437 26,400 1,200 Climbing Atlanta Center
Sat 11:36:54 AM 33.6608 -86.0506 271° West 386 444 27,700 1,200 Climbing Atlanta Center
Sat 11:37:54 AM 33.6631 -86.1803 271° West 386 444 28,800 1,000 Climbing Atlanta Center
Sat 11:38:54 AM 33.6647 -86.3100 271° West 386 444 29,700 800 Climbing Atlanta Center
Sat 11:39:54 AM 33.6644 -86.4422 270° West 391 450 30,400 800 Climbing Atlanta Center
Sat 11:40:54 AM 33.6658 -86.5772 271° West 398 458 31,300 900 Climbing Atlanta Center
Sat 11:41:54 AM 33.6669 -86.7169 271° West 404 465 32,200 850 Climbing Atlanta Center
Sat 11:42:54 AM 33.6683 -86.8492 271° West 404 465 33,000 600 Climbing Atlanta Center
Sat 11:43:54 AM 33.6881 -86.9872 280° West 409 471 33,400 500 Climbing Atlanta Center
Sat 11:44:54 AM 33.7181 -87.1256 285° West 419 482 34,000 175 Climbing Atlanta Center
Sat 11:47:20 AM 33.7883 -87.4703 284° West 442 509 34,000  Level Memphis Center
Sat 11:48:20 AM 33.8189 -87.6094 285° West 432 497 34,000  Level Memphis Center
Sat 11:49:20 AM 33.8508 -87.7458 286° West 432 497 34,000  Level Memphis Center
Sat 11:50:20 AM 33.8744 -87.8703 283° West 432 497 34,000  Level Memphis Center
Sat 11:51:20 AM 33.8981 -88.0147 281° West 432 497 34,000  Level Memphis Center
Sat 11:52:20 AM 33.9317 -88.1492 287° West 432 497 34,000  Level Memphis Center
Sat 11:53:20 AM 33.9597 -88.3111 282° West 442 509 34,000  Level Memphis Center
Sat 11:54:20 AM 33.9889 -88.4483 284° West 442 509 34,000  Level Memphis Center
Sat 11:55:20 AM 34.0181 -88.5856 284° West 432 497 34,000  Level Memphis Center
Sat 11:56:20 AM 34.0450 -88.7253 283° West 432 497 34,000  Level Memphis Center
Sat 11:57:20 AM 34.0719 -88.8650 283° West 432 497 34,000  Level Memphis Center
Sat 11:58:20 AM 34.0986 -89.0050 283° West 430 495 34,000  Level Memphis Center
Sat 11:59:20 AM 34.1269 -89.1428 284° West 425 489 34,000  Level Memphis Center
Sat 12:00:20 PM 34.1514 -89.2831 282° West 431 496 34,000  Level Memphis Center
Sat 12:01:20 PM 34.1794 -89.4231 284° West 431 496 34,000  Level Memphis Center
Sat 12:02:20 PM 34.2056 -89.5586 283° West 431 496 34,000  Level Memphis Center
Sat 12:03:20 PM 34.2314 -89.6939 283° West 421 484 34,000  Level Memphis Center
Sat 12:04:20 PM 34.2550 -89.8144 283° West 412 474 34,000  Level Memphis Center
Sat 12:05:20 PM 34.2783 -89.9500 282° West 412 474 34,000  Level Memphis Center
Sat 12:06:20 PM 34.3058 -90.0881 284° West 417 480 34,000  Level Memphis Center
Sat 12:07:20 PM 34.3311 -90.2264 283° West 417 480 34,000  Level Memphis Center
Sat 12:08:20 PM 34.3583 -90.3797 282° West 422 486 34,000  Level Memphis Center
Sat 12:09:20 PM 34.3856 -90.5233 283° West 429 494 34,000  Level Memphis Center
Sat 12:10:20 PM 34.4122 -90.6642 283° West 429 494 34,000  Level Memphis Center
Sat 12:11:20 PM 34.4392 -90.8053 283° West 429 494 34,000  Level Memphis Center
Sat 12:12:20 PM 34.4656 -90.9492 283° West 429 494 34,000  Level Memphis Center
Sat 12:13:20 PM 34.4900 -91.0878 282° West 429 494 34,000  Level Memphis Center
Sat 12:14:20 PM 34.5139 -91.2342 281° West 436 502 34,000  Level Memphis Center
Sat 12:15:20 PM 34.5400 -91.3758 283° West 436 502 34,000  Level Memphis Center
Sat 12:16:20 PM 34.5597 -91.5019 281° West 430 495 34,000  Level Memphis Center
Sat 12:17:20 PM 34.5856 -91.6411 283° West 430 495 34,000  Level Memphis Center
Sat 12:18:20 PM 34.6111 -91.7853 282° West 415 478 34,000  Level Memphis Center
Sat 12:19:20 PM 34.6325 -91.9219 281° West 410 472 34,000  Level Memphis Center
Sat 12:20:21 PM 34.6558 -92.0589 282° West 410 472 34,000  Level Memphis Center
Sat 12:21:20 PM 34.6725 -92.1931 279° West 410 472 34,000  Level Memphis Center
Sat 12:22:20 PM 34.6664 -92.3342 267° West 410 472 34,000  Level Memphis Center
Sat 12:23:20 PM 34.6556 -92.4728 265° West 410 472 34,000  Level Memphis Center
Sat 12:24:20 PM 34.6450 -92.6089 265° West 416 479 34,000  Level Memphis Center
Sat 12:25:20 PM 34.6342 -92.7475 265° West 416 479 34,000  Level Memphis Center
Sat 12:26:20 PM 34.6231 -92.8858 264° West 416 479 34,000  Level Memphis Center
Sat 12:27:21 PM 34.6117 -93.0219 264° West 422 486 34,000  Level Memphis Center
Sat 12:28:20 PM 34.6025 -93.1603 265° West 422 486 34,000  Level Memphis Center
Sat 12:29:20 PM 34.5889 -93.2986 263° West 422 486 34,000  Level Memphis Center
Sat 12:30:20 PM 34.5794 -93.4319 265° West 417 480 34,000  Level Memphis Center
Sat 12:31:20 PM 34.5697 -93.5703 265° West 417 480 34,000  Level Memphis Center
Sat 12:32:20 PM 34.5558 -93.7036 263° West 410 472 34,000  Level Memphis Center
Sat 12:33:51 PM 34.5417 -93.9094 265° West 409 471 34,000  Level Fort Worth Center
Sat 12:34:51 PM 34.5289 -94.0458 264° West 404 465 34,000  Level Fort Worth Center
Sat 12:35:51 PM 34.5178 -94.1775 264° West 404 465 34,000  Level Fort Worth Center
Sat 12:36:51 PM 34.5064 -94.3114 264° West 409 471 34,000  Level Fort Worth Center
Sat 12:37:51 PM 34.4950 -94.4428 264° West 409 471 34,000  Level Fort Worth Center
Sat 12:38:51 PM 34.4814 -94.5742 263° West 404 465 34,000  Level Fort Worth Center
Sat 12:39:51 PM 34.4717 -94.7056 265° West 404 465 34,000  Level Fort Worth Center
Sat 12:40:51 PM 34.4558 -94.8397 262° West 410 472 34,000  Level Fort Worth Center
Sat 12:41:51 PM 34.4439 -94.9733 264° West 410 472 34,000  Level Fort Worth Center
Sat 12:42:51 PM 34.4317 -95.1047 264° West 410 472 34,000  Level Fort Worth Center
Sat 12:43:51 PM 34.4175 -95.2358 263° West 403 464 34,000  Level Fort Worth Center
Sat 12:44:51 PM 34.4031 -95.3672 262° West 398 458 34,000  Level Fort Worth Center
Sat 12:45:51 PM 34.3903 -95.4958 263° West 398 458 34,000  Level Fort Worth Center
Sat 12:46:51 PM 34.3733 -95.6219 261° West 392 451 34,000  Level Fort Worth Center
Sat 12:47:51 PM 34.3628 -95.7531 264° West 392 451 34,000  Level Fort Worth Center
Sat 12:48:51 PM 34.3478 -95.8817 262° West 392 451 34,000  Level Fort Worth Center
Sat 12:49:51 PM 34.3347 -96.0153 263° West 392 451 34,000  Level Fort Worth Center
Sat 12:50:51 PM 34.3192 -96.1436 262° West 392 451 34,000  Level Fort Worth Center
Sat 12:51:51 PM 34.3058 -96.2744 263° West 392 451 34,000  Level Fort Worth Center
Sat 12:52:51 PM 34.2925 -96.4106 263° West 397 457 34,000  Level Fort Worth Center
Sat 12:53:51 PM 34.2767 -96.5414 262° West 397 457 34,000  Level Fort Worth Center
Sat 12:54:51 PM 34.2669 -96.6469 264° West 402 463 34,000  Level Fort Worth Center
Sat 12:55:51 PM 34.2511 -96.7878 262° West 402 463 34,000  Level Fort Worth Center
Sat 12:57:00 PM 34.2303 -96.9433 261° West  Level FlightAware Approximate
Sat 12:57:51 PM 34.2208 -97.0569 261° West 402 463 34,000  Level Fort Worth Center
Sat 12:58:51 PM 34.2086 -97.1875 264° West 407 468 34,000  Level Fort Worth Center
Sat 12:59:51 PM 34.2172 -97.3206 275° West 407 468 34,000  Level Fort Worth Center
Sat 01:00:51 PM 34.2256 -97.4511 274° West 402 463 34,000  Level Fort Worth Center
Sat 01:01:51 PM 34.2336 -97.5894 274° West 402 463 34,000  Level Fort Worth Center
Sat 01:02:51 PM 34.2417 -97.7250 274° West 408 470 34,000  Level Fort Worth Center
Sat 01:03:51 PM 34.2497 -97.8633 274° West 408 470 34,000  Level Fort Worth Center
Sat 01:04:51 PM 34.2575 -98.0014 274° West 408 470 34,000  Level Fort Worth Center
Sat 01:05:51 PM 34.2650 -98.1397 274° West 413 475 34,000  Level Fort Worth Center
Sat 01:06:51 PM 34.2747 -98.2781 275° West 413 475 34,000  Level Fort Worth Center
Sat 01:07:51 PM 34.2819 -98.4139 274° West 413 475 34,000  Level Fort Worth Center
Sat 01:08:51 PM 34.2892 -98.5522 274° West 413 475 34,000  Level Fort Worth Center
Sat 01:09:51 PM 34.2961 -98.6906 274° West 418 481 34,000  Level Fort Worth Center
Sat 01:10:51 PM 34.3050 -98.8314 274° West 418 481 34,000  Level Fort Worth Center
Sat 01:11:51 PM 34.3117 -98.9675 273° West 418 481 34,000  Level Fort Worth Center
Sat 01:12:51 PM 34.3183 -99.1058 273° West 418 481 34,000  Level Fort Worth Center
Sat 01:13:51 PM 34.3267 -99.2517 274° West 413 475 34,000  Level Fort Worth Center
Sat 01:14:51 PM 34.3331 -99.3903 273° West 413 475 34,000  Level Fort Worth Center
Sat 01:15:51 PM 34.3389 -99.5311 273° West 413 475 34,000  Level Fort Worth Center
Sat 01:16:51 PM 34.3433 -99.6469 273° West 424 488 34,000  Level Fort Worth Center
Sat 01:17:51 PM 34.3528 -99.8108 274° West 424 488 34,000  Level Fort Worth Center
Sat 01:18:51 PM 34.3561 -99.9517 272° West 424 488 34,000  Level Fort Worth Center
Sat 01:19:51 PM 34.3636 -100.0903 274° West 424 488 34,000  Level Fort Worth Center
Sat 01:20:51 PM 34.3689 -100.2339 273° West 424 488 34,000  Level Fort Worth Center
Sat 01:21:37 PM 34.3786 -100.3192 278° West 418 481 34,000  Level Albuquerque Center
Sat 01:22:39 PM 34.4122 -100.4511 287° West 410 472 34,000  Level Albuquerque Center
Sat 01:23:41 PM 34.4533 -100.6111 287° West 414 476 34,000  Level Albuquerque Center
Sat 01:24:42 PM 34.4872 -100.7456 287° West 417 480 34,000  Level Albuquerque Center
Sat 01:25:44 PM 34.5228 -100.8792 288° West 417 480 34,000  Level Albuquerque Center
Sat 01:26:46 PM 34.5561 -101.0142 287° West 418 481 34,000  Level Albuquerque Center
Sat 01:27:48 PM 34.5906 -101.1494 287° West 419 482 34,000  Level Albuquerque Center
Sat 01:28:49 PM 34.6244 -101.2833 287° West 416 479 34,000  Level Albuquerque Center
Sat 01:29:51 PM 34.6589 -101.4200 287° West 422 486 34,000  Level Albuquerque Center
Sat 01:30:53 PM 34.6922 -101.5553 287° West 419 482 34,000  Level Albuquerque Center
Sat 01:31:55 PM 34.7333 -101.7203 287° West 421 484 34,000  Level Albuquerque Center
Sat 01:32:56 PM 34.7664 -101.8569 286° West 420 483 34,000  Level Albuquerque Center
Sat 01:33:58 PM 34.8000 -101.9950 287° West 422 486 34,000  Level Albuquerque Center
Sat 01:35:00 PM 34.8339 -102.1319 287° West 422 486 34,000  Level Albuquerque Center
Sat 01:36:02 PM 34.8672 -102.2683 287° West 420 483 34,000  Level Albuquerque Center
Sat 01:37:04 PM 34.9006 -102.4064 286° West 423 487 34,000  Level Albuquerque Center
Sat 01:38:05 PM 34.9344 -102.5442 287° West 424 488 34,000  Level Albuquerque Center
Sat 01:39:07 PM 34.9700 -102.6914 286° West 424 488 34,000  Level Albuquerque Center
Sat 01:40:09 PM 35.0019 -102.8303 286° West 423 487 34,000  Level Albuquerque Center
Sat 01:41:11 PM 35.0367 -102.9697 287° West 424 488 34,000  Level Albuquerque Center
Sat 01:42:13 PM 35.0739 -103.1342 286° West 427 491 34,000  Level Albuquerque Center
Sat 01:43:14 PM 35.1075 -103.2744 286° West 427 491 34,000  Level Albuquerque Center
Sat 01:44:16 PM 35.1403 -103.4147 286° West 427 491 34,000  Level Albuquerque Center
Sat 01:45:18 PM 35.1719 -103.5544 286° West 425 489 34,000  Level Albuquerque Center
Sat 01:46:20 PM 35.1794 -103.6997 274° West 424 488 34,000  Level Albuquerque Center
Sat 01:47:21 PM 35.1717 -103.8472 266° West 428 493 34,000  Level Albuquerque Center
Sat 01:48:23 PM 35.1653 -104.0075 267° West 431 496 34,000 -48 Level Albuquerque Center
Sat 01:49:25 PM 35.1567 -104.1556 266° West 435 501 33,900  Descending Albuquerque Center
Sat 01:50:27 PM 35.1486 -104.3028 266° West 434 499 34,000 49 Climbing Albuquerque Center
Sat 01:51:28 PM 35.1425 -104.4475 267° West 430 495 34,000  Level Albuquerque Center
Sat 01:52:30 PM 35.1342 -104.5975 266° West 434 499 34,000  Level Albuquerque Center
Sat 01:53:32 PM 35.1272 -104.7464 267° West 435 501 34,000 -532 Level Albuquerque Center
Sat 01:54:34 PM 35.1181 -104.9175 266° West 431 496 32,900 -1,016 Descending Albuquerque Center
Sat 01:55:36 PM 35.1086 -105.0686 266° West 438 504 31,900 -1,756 Descending Albuquerque Center
Sat 01:56:37 PM 35.0858 -105.2178 259° West 442 509 29,300 -2,488 Descending Albuquerque Center
Sat 01:57:39 PM 35.0642 -105.3614 260° West 431 496 26,800 -1,839 Descending Albuquerque Center
Sat 01:58:41 PM 35.0417 -105.4953 258° West 408 470 25,500 -1,610 Descending Albuquerque Center
Sat 01:59:42 PM 35.0211 -105.6186 259° West 382 440 23,500 -2,000 Descending Albuquerque Center
Sat 02:00:44 PM 35.0006 -105.7456 259° West 380 437 21,400 -2,032 Descending Albuquerque Center
Sat 02:01:46 PM 34.9789 -105.8686 258° West 373 429 19,300 -1,790 Descending Albuquerque Center
Sat 02:02:48 PM 34.9594 -105.9903 259° West 369 425 17,700 -1,427 Descending Albuquerque Center
Sat 02:04:09 PM 34.9564 -106.1586 269° West 330 380 15,900 -1,447 Descending Albuquerque Center
Sat 02:05:09 PM 34.9564 -106.2675 270° West 324 373 14,300 -1,606 Descending Albuquerque Center
Sat 02:06:16 PM 34.9592 -106.3911 272° West 316 364 12,500 -1,500 Descending Albuquerque Center
Sat 02:07:17 PM 34.9558 -106.4931 268° West 304 350 11,100 -1,033 Descending Albuquerque Center
Sat 02:08:18 PM 34.9531 -106.5872 268° West 256 295 10,400 -626 Descending Albuquerque Center
Sat 02:09:12 PM 34.9494 -106.6633 267° West 233 268 9,900 -556 Descending Albuquerque Center

Login

Don't have an account? Register now (free) for customized features, flight alerts, and more!